Time;durP1;ratioP1;P1;durP2;ratioP2;P2;SDS_P1;SDS_P2;PMS_P1;PMS_P2;Temp;Humidity;BMP_temperature;BMP_pressure;BME280_temperature;BME280_humidity;BME280_pressure;Samples;Min_cycle;Max_cycle;Signal;HPM_P1;HPM_P2
2024/01/27 00:01:35;;;;;;;4.60;1.20;;;4.50;69.40;;;;;;4868180;28;114868;-82
2024/01/27 00:04:03;;;;;;;3.25;1.10;;;4.60;69.40;;;;;;4867979;28;114758;-81
2024/01/27 00:06:31;;;;;;;5.60;1.75;;;4.50;69.50;;;;;;4865929;28;116569;-81
2024/01/27 00:08:59;;;;;;;5.13;1.25;;;4.50;69.60;;;;;;4867174;28;114601;-81
2024/01/27 00:11:26;;;;;;;4.53;1.40;;;4.50;69.70;;;;;;4866834;28;114761;-81
2024/01/27 00:13:54;;;;;;;3.88;1.10;;;4.40;69.90;;;;;;4884439;28;114451;-82
2024/01/27 00:16:21;;;;;;;6.35;1.23;;;4.40;69.90;;;;;;4883484;28;115205;-82
2024/01/27 00:18:48;;;;;;;5.18;1.60;;;4.30;70.10;;;;;;4869667;28;114549;-81
2024/01/27 00:21:16;;;;;;;4.13;1.15;;;4.20;70.10;;;;;;4884862;28;114221;-82
2024/01/27 00:23:43;;;;;;;6.07;1.30;;;4.20;70.00;;;;;;4868839;28;114731;-81
2024/01/27 00:26:11;;;;;;;3.38;1.00;;;4.20;70.10;;;;;;4869126;28;115689;-81
2024/01/27 00:28:38;;;;;;;8.60;2.08;;;4.10;69.90;;;;;;4868836;28;115032;-81
2024/01/27 00:31:05;;;;;;;4.50;1.05;;;4.10;69.80;;;;;;4884173;28;114387;-81
2024/01/27 00:33:33;;;;;;;4.47;1.75;;;4.00;69.80;;;;;;4868755;28;114294;-81
2024/01/27 00:36:04;;;;;;;7.55;1.25;;;3.90;69.90;;;;;;4867421;28;115144;-81
2024/01/27 00:38:31;;;;;;;6.05;1.52;;;3.90;69.90;;;;;;4882583;28;115441;-81
2024/01/27 00:40:59;;;;;;;4.55;1.30;;;3.80;70.00;;;;;;4868807;28;114204;-81
2024/01/27 00:43:26;;;;;;;3.05;1.02;;;3.80;70.00;;;;;;4885278;28;114473;-81
2024/01/27 00:45:53;;;;;;;5.05;1.30;;;3.80;70.20;;;;;;4870252;28;118792;-81
2024/01/27 00:48:21;;;;;;;4.50;1.80;;;3.80;70.10;;;;;;4871573;28;114734;-81
2024/01/27 00:50:48;;;;;;;5.72;1.50;;;3.80;70.10;;;;;;4872458;28;114503;-81
2024/01/27 00:53:16;;;;;;;4.13;1.42;;;3.80;70.20;;;;;;4872145;28;114564;-81
2024/01/27 00:55:43;;;;;;;6.38;1.50;;;3.80;70.30;;;;;;4871604;28;115093;-81
2024/01/27 00:58:10;;;;;;;5.22;1.42;;;3.80;70.30;;;;;;4871780;28;115042;-81
2024/01/27 01:00:38;;;;;;;5.07;1.30;;;3.90;70.20;;;;;;4872400;28;114212;-81
2024/01/27 01:03:05;;;;;;;5.07;1.50;;;3.80;70.10;;;;;;4872794;28;114275;-80
2024/01/27 01:05:32;;;;;;;5.97;1.33;;;3.90;69.80;;;;;;4890302;28;114482;-81
2024/01/27 01:08:00;;;;;;;4.85;1.52;;;3.90;69.50;;;;;;4880149;28;114223;-80
2024/01/27 01:10:27;;;;;;;7.25;1.77;;;3.80;69.10;;;;;;4873832;28;114571;-80
2024/01/27 01:12:54;;;;;;;7.65;1.58;;;3.80;69.00;;;;;;4872297;28;114141;-79
2024/01/27 01:15:22;;;;;;;6.25;1.98;;;3.80;68.80;;;;;;4886089;28;114309;-81
2024/01/27 01:17:49;;;;;;;7.57;1.70;;;3.90;68.50;;;;;;4870706;28;115169;-80
2024/01/27 01:20:17;;;;;;;12.27;2.58;;;3.90;68.30;;;;;;4874450;28;114204;-80
2024/01/27 01:22:44;;;;;;;8.25;1.38;;;3.90;68.20;;;;;;4873556;28;114263;-80
2024/01/27 01:25:11;;;;;;;9.90;1.33;;;3.90;67.90;;;;;;4871322;28;115060;-80
2024/01/27 01:27:38;;;;;;;5.65;1.40;;;3.90;67.70;;;;;;4870312;28;114556;-81
2024/01/27 01:30:06;;;;;;;5.45;1.50;;;3.90;67.60;;;;;;4871424;28;114317;-80
2024/01/27 01:32:35;;;;;;;7.25;1.63;;;4.00;67.30;;;;;;4886666;28;114531;-81
2024/01/27 01:35:03;;;;;;;8.10;1.58;;;4.00;66.90;;;;;;4871720;28;114435;-81
2024/01/27 01:37:31;;;;;;;8.40;1.52;;;4.00;66.80;;;;;;4857494;28;114639;-81
2024/01/27 01:39:58;;;;;;;4.93;1.27;;;4.00;66.50;;;;;;4871056;28;114360;-80
2024/01/27 01:42:25;;;;;;;6.35;1.38;;;4.00;66.00;;;;;;4871985;28;114259;-81
2024/01/27 01:44:53;;;;;;;8.82;1.52;;;4.00;66.10;;;;;;4871357;28;115181;-81
2024/01/27 01:47:22;;;;;;;6.45;1.35;;;4.00;66.00;;;;;;4871979;28;114588;-81
2024/01/27 01:49:49;;;;;;;8.55;1.10;;;4.10;66.00;;;;;;4872492;28;114432;-80
2024/01/27 01:52:19;;;;;;;5.30;1.27;;;4.10;65.90;;;;;;4871066;28;114354;-80
2024/01/27 01:54:50;;;;;;;9.93;1.50;;;4.10;65.90;;;;;;4870180;28;115160;-81
2024/01/27 01:57:18;;;;;;;6.68;1.20;;;4.20;65.70;;;;;;4885832;28;114638;-81
2024/01/27 01:59:46;;;;;;;7.13;1.27;;;4.20;65.70;;;;;;4871771;28;114212;-81
2024/01/27 02:02:13;;;;;;;3.97;1.33;;;4.20;65.50;;;;;;4873329;28;114205;-81
2024/01/27 02:04:45;;;;;;;4.60;1.10;;;4.20;65.40;;;;;;4870408;28;117336;-81
2024/01/27 02:07:13;;;;;;;6.53;1.30;;;4.20;65.10;;;;;;4870580;28;115316;-81
2024/01/27 02:09:40;;;;;;;8.82;1.60;;;4.20;65.10;;;;;;4870658;28;114692;-81
2024/01/27 02:12:08;;;;;;;4.65;1.60;;;4.20;65.10;;;;;;4855726;28;114550;-80
2024/01/27 02:14:35;;;;;;;7.55;1.33;;;4.20;65.00;;;;;;4886067;28;115650;-81
2024/01/27 02:17:04;;;;;;;9.40;1.15;;;4.20;64.80;;;;;;4870376;28;114554;-80
2024/01/27 02:19:31;;;;;;;7.50;1.77;;;4.20;64.60;;;;;;4871122;28;114279;-80
2024/01/27 02:21:59;;;;;;;7.45;2.38;;;4.20;64.60;;;;;;4872037;28;114401;-80
2024/01/27 02:24:28;;;;;;;6.97;1.95;;;4.20;64.40;;;;;;4879322;28;116872;-81
2024/01/27 02:26:56;;;;;;;5.28;1.40;;;4.20;64.30;;;;;;4872432;28;116219;-81
2024/01/27 02:29:23;;;;;;;7.30;1.35;;;4.20;64.20;;;;;;4871770;28;114330;-80
2024/01/27 02:31:50;;;;;;;4.90;1.45;;;4.20;64.00;;;;;;4871359;28;114237;-80
2024/01/27 02:34:18;;;;;;;8.10;1.40;;;4.20;64.10;;;;;;4870063;28;116086;-80
2024/01/27 02:36:45;;;;;;;4.35;1.38;;;4.20;63.80;;;;;;4869339;28;115047;-80
2024/01/27 02:39:12;;;;;;;5.28;1.60;;;4.20;63.60;;;;;;4871433;28;114244;-80
2024/01/27 02:41:40;;;;;;;4.28;1.40;;;4.20;63.60;;;;;;4869499;28;114363;-80
2024/01/27 02:44:07;;;;;;;9.13;1.73;;;4.20;63.50;;;;;;4868453;28;115296;-80
2024/01/27 02:46:34;;;;;;;5.32;1.15;;;4.20;63.40;;;;;;4886178;28;115791;-80
2024/01/27 02:49:03;;;;;;;4.28;1.27;;;4.20;62.80;;;;;;4889449;28;114229;-80
2024/01/27 02:51:30;;;;;;;4.50;1.42;;;4.10;62.50;;;;;;4889680;28;114138;-80
2024/01/27 02:53:58;;;;;;;5.20;1.13;;;4.10;62.60;;;;;;4871918;28;115281;-80
2024/01/27 02:56:25;;;;;;;6.28;1.95;;;4.10;62.30;;;;;;4871730;28;114875;-81
2024/01/27 02:58:53;;;;;;;4.53;1.45;;;4.10;62.10;;;;;;4889546;28;114725;-81
2024/01/27 03:01:20;;;;;;;8.07;1.52;;;4.10;61.70;;;;;;4888557;28;114272;-80
2024/01/27 03:03:48;;;;;;;6.80;1.40;;;4.00;61.70;;;;;;4888492;28;115355;-80
2024/01/27 03:06:15;;;;;;;6.10;1.13;;;4.00;61.80;;;;;;4887663;28;115008;-80
2024/01/27 03:08:43;;;;;;;11.07;1.40;;;4.00;61.70;;;;;;4888787;28;114705;-80
2024/01/27 03:11:10;;;;;;;5.00;1.20;;;4.00;61.70;;;;;;4889448;28;114415;-80
2024/01/27 03:13:44;;;;;;;7.38;1.60;;;4.00;61.60;;;;;;4887281;28;115643;-80
2024/01/27 03:16:12;;;;;;;8.05;1.38;;;4.10;61.40;;;;;;4887297;28;117473;-80
2024/01/27 03:18:40;;;;;;;6.30;1.20;;;4.10;61.20;;;;;;4890402;28;114631;-80
2024/01/27 03:21:08;;;;;;;9.05;1.65;;;4.10;60.90;;;;;;4872911;28;114338;-79
2024/01/27 03:23:36;;;;;;;4.22;1.50;;;4.00;60.50;;;;;;4887554;28;115155;-78
2024/01/27 03:26:04;;;;;;;5.03;1.20;;;4.00;60.30;;;;;;4872381;28;118463;-79
2024/01/27 03:28:31;;;;;;;7.43;1.35;;;4.00;60.20;;;;;;4889741;28;114244;-79
2024/01/27 03:30:59;;;;;;;4.88;1.20;;;4.10;60.20;;;;;;4889151;28;114407;-79
2024/01/27 03:33:29;;;;;;;6.82;1.40;;;4.00;60.20;;;;;;4886791;28;115507;-80
2024/01/27 03:35:56;;;;;;;4.85;1.10;;;4.00;60.00;;;;;;4888685;28;114555;-80
2024/01/27 03:38:24;;;;;;;5.63;1.15;;;4.00;60.00;;;;;;4889909;28;114318;-81
2024/01/27 03:40:51;;;;;;;7.00;2.03;;;4.10;59.90;;;;;;4889967;28;114525;-80
2024/01/27 03:43:18;;;;;;;10.05;1.50;;;4.10;59.80;;;;;;4889072;28;115221;-81
2024/01/27 03:45:46;;;;;;;5.68;1.15;;;4.10;59.70;;;;;;4888959;28;114643;-82
2024/01/27 03:48:13;;;;;;;6.38;1.35;;;4.10;59.50;;;;;;4888011;28;114589;-82
2024/01/27 03:50:43;;;;;;;5.95;2.25;;;4.10;59.50;;;;;;4888663;28;115058;-80
2024/01/27 03:53:10;;;;;;;6.05;1.35;;;4.10;59.40;;;;;;4887900;28;114599;-80
2024/01/27 03:55:38;;;;;;;4.15;1.27;;;4.10;59.10;;;;;;4890131;28;114619;-80
2024/01/27 03:58:05;;;;;;;6.68;1.50;;;4.10;58.80;;;;;;4890862;28;114457;-81
2024/01/27 04:00:33;;;;;;;9.68;1.52;;;4.10;58.70;;;;;;4888604;28;114107;-80
2024/01/27 04:03:00;;;;;;;7.28;1.55;;;4.00;58.50;;;;;;4887521;28;115375;-80
2024/01/27 04:05:29;;;;;;;6.75;1.55;;;4.10;58.60;;;;;;4887190;28;114627;-79
2024/01/27 04:07:57;;;;;;;5.68;1.20;;;4.10;58.30;;;;;;4872509;28;114387;-79
2024/01/27 04:10:24;;;;;;;3.78;1.15;;;4.10;58.20;;;;;;4888464;28;114378;-79
2024/01/27 04:12:51;;;;;;;5.07;1.02;;;4.00;58.20;;;;;;4871770;28;115661;-80
2024/01/27 04:15:19;;;;;;;5.47;1.50;;;4.00;58.20;;;;;;4888441;28;114597;-80
2024/01/27 04:17:46;;;;;;;7.70;1.83;;;4.00;58.00;;;;;;4888669;28;114342;-78
2024/01/27 04:20:14;;;;;;;6.25;1.35;;;4.00;58.00;;;;;;4875799;28;114253;-79
2024/01/27 04:22:41;;;;;;;6.55;1.23;;;4.00;57.70;;;;;;4891015;28;115189;-81
2024/01/27 04:25:09;;;;;;;7.80;1.20;;;4.00;57.90;;;;;;4861287;28;115971;-80
2024/01/27 04:27:40;;;;;;;5.40;1.00;;;4.00;57.90;;;;;;4854534;28;114222;-80
2024/01/27 04:30:08;;;;;;;6.25;1.15;;;4.00;57.70;;;;;;4868531;28;114382;-80
2024/01/27 04:32:36;;;;;;;9.18;1.45;;;4.00;57.90;;;;;;4867448;28;115503;-80
2024/01/27 04:35:04;;;;;;;6.20;1.15;;;3.90;57.80;;;;;;4867344;28;115436;-80
2024/01/27 04:37:31;;;;;;;9.02;1.25;;;4.00;57.90;;;;;;4853877;28;114536;-79
2024/01/27 04:39:59;;;;;;;6.78;1.20;;;4.00;57.80;;;;;;4854654;28;114196;-80
2024/01/27 04:42:26;;;;;;;6.82;1.25;;;4.00;57.70;;;;;;4851683;29;115487;-79
2024/01/27 04:44:53;;;;;;;7.68;1.67;;;4.00;57.80;;;;;;4852828;29;114721;-80
2024/01/27 04:47:21;;;;;;;7.50;1.50;;;4.00;57.70;;;;;;4853027;29;114420;-80
2024/01/27 04:49:48;;;;;;;7.60;1.30;;;4.00;57.90;;;;;;4853285;28;114707;-80
2024/01/27 04:52:16;;;;;;;8.98;1.50;;;4.00;57.80;;;;;;4852757;28;115003;-80
2024/01/27 04:54:43;;;;;;;6.50;1.58;;;4.00;57.80;;;;;;4852744;29;115405;-80
2024/01/27 04:57:10;;;;;;;7.47;1.63;;;4.00;57.60;;;;;;4852287;29;114365;-81
2024/01/27 04:59:38;;;;;;;7.15;1.40;;;4.00;57.50;;;;;;4854892;29;114457;-79
2024/01/27 05:02:05;;;;;;;7.03;1.40;;;4.00;57.40;;;;;;4859230;29;115502;-80
2024/01/27 05:04:32;;;;;;;6.07;1.58;;;4.00;57.20;;;;;;4853008;29;114825;-81
2024/01/27 05:06:59;;;;;;;5.22;1.30;;;4.00;57.10;;;;;;4853485;28;114483;-80
2024/01/27 05:09:27;;;;;;;5.45;1.38;;;4.00;57.10;;;;;;4852084;29;114491;-81
2024/01/27 05:11:54;;;;;;;5.72;1.38;;;3.90;57.30;;;;;;4851870;28;116250;-80
2024/01/27 05:14:22;;;;;;;6.82;1.70;;;3.90;57.50;;;;;;4853192;29;114602;-79
2024/01/27 05:16:49;;;;;;;8.50;1.77;;;4.00;57.50;;;;;;4853692;28;114466;-79
2024/01/27 05:19:17;;;;;;;7.72;1.48;;;4.00;57.40;;;;;;4837013;29;114698;-80
2024/01/27 05:21:45;;;;;;;6.93;1.80;;;4.10;57.40;;;;;;4852734;29;115065;-80
2024/01/27 05:24:12;;;;;;;6.47;1.60;;;4.10;57.30;;;;;;4852267;28;116359;-80
2024/01/27 05:26:40;;;;;;;6.05;1.55;;;4.10;57.40;;;;;;4853304;29;114750;-79
2024/01/27 05:29:08;;;;;;;9.88;2.40;;;4.10;56.60;;;;;;4851592;29;114339;-80
2024/01/27 05:31:35;;;;;;;9.95;1.55;;;4.10;56.80;;;;;;4835153;29;116835;-80
2024/01/27 05:34:04;;;;;;;4.75;1.48;;;4.00;56.80;;;;;;4851840;29;116010;-80
2024/01/27 05:36:32;;;;;;;4.72;1.20;;;4.00;56.80;;;;;;4866576;28;114307;-80
2024/01/27 05:38:59;;;;;;;8.63;1.90;;;4.10;56.70;;;;;;4852905;29;114067;-80
2024/01/27 05:41:28;;;;;;;4.28;1.35;;;4.00;56.70;;;;;;4851898;29;115102;-80
2024/01/27 05:43:59;;;;;;;6.00;1.25;;;4.00;56.50;;;;;;4865992;28;114713;-80
2024/01/27 05:46:27;;;;;;;6.93;2.45;;;3.90;56.60;;;;;;4853085;29;114256;-80
2024/01/27 05:48:57;;;;;;;6.35;1.40;;;3.90;56.80;;;;;;4851654;29;114746;-79
2024/01/27 05:51:25;;;;;;;8.40;1.40;;;4.00;57.00;;;;;;4850610;29;115090;-79
2024/01/27 05:53:52;;;;;;;6.03;1.35;;;4.00;57.00;;;;;;4852045;29;114649;-80
2024/01/27 05:56:23;;;;;;;9.60;1.48;;;4.00;56.90;;;;;;4852789;29;114263;-80
2024/01/27 05:58:50;;;;;;;8.52;1.52;;;4.00;56.80;;;;;;4836275;29;114284;-80
2024/01/27 06:01:19;;;;;;;5.50;1.40;;;4.00;56.70;;;;;;4865895;28;115150;-79
2024/01/27 06:03:46;;;;;;;7.53;1.48;;;4.00;56.80;;;;;;4865416;28;115290;-79
2024/01/27 06:06:14;;;;;;;4.78;1.45;;;4.00;56.70;;;;;;4852253;28;114344;-80
2024/01/27 06:08:41;;;;;;;9.77;1.80;;;4.00;56.70;;;;;;4852047;29;114290;-80
2024/01/27 06:11:09;;;;;;;7.80;1.92;;;4.00;56.60;;;;;;4865853;28;116554;-80
2024/01/27 06:13:40;;;;;;;7.43;1.65;;;4.00;56.70;;;;;;4851919;28;114763;-80
2024/01/27 06:16:11;;;;;;;5.57;1.42;;;4.00;56.70;;;;;;4854342;28;114175;-80
2024/01/27 06:18:39;;;;;;;4.78;1.60;;;4.10;56.80;;;;;;4855844;28;114242;-79
2024/01/27 06:21:07;;;;;;;11.73;1.92;;;4.00;56.70;;;;;;4850150;29;117960;-79
2024/01/27 06:23:34;;;;;;;5.47;1.40;;;4.00;56.60;;;;;;4851688;29;114706;-79
2024/01/27 06:26:07;;;;;;;5.38;1.17;;;4.00;56.30;;;;;;4851916;28;114257;-80
2024/01/27 06:28:36;;;;;;;5.30;1.70;;;4.00;56.10;;;;;;4869027;28;114753;-80
2024/01/27 06:31:04;;;;;;;5.85;1.40;;;4.00;56.20;;;;;;4868323;28;114272;-80
2024/01/27 06:33:31;;;;;;;7.43;1.75;;;4.00;56.00;;;;;;4851498;28;115258;-81
2024/01/27 06:35:59;;;;;;;9.32;1.40;;;4.10;55.90;;;;;;4866609;28;114429;-80
2024/01/27 06:38:27;;;;;;;8.40;1.60;;;4.00;55.90;;;;;;4852298;28;114293;-81
2024/01/27 06:40:54;;;;;;;5.97;1.40;;;4.00;55.60;;;;;;4863020;29;115746;-81
2024/01/27 06:43:25;;;;;;;7.78;1.70;;;3.90;55.10;;;;;;4839082;29;117432;-80
2024/01/27 06:45:54;;;;;;;7.13;1.55;;;3.90;55.20;;;;;;4852516;28;114412;-80
2024/01/27 06:48:24;;;;;;;6.90;1.50;;;3.80;54.80;;;;;;4834916;29;114663;-81
2024/01/27 06:50:52;;;;;;;5.53;1.33;;;3.80;54.80;;;;;;4848692;28;118851;-79
2024/01/27 06:53:20;;;;;;;11.15;1.90;;;3.80;54.90;;;;;;4867514;28;117860;-81
2024/01/27 06:55:47;;;;;;;10.20;1.85;;;3.70;54.80;;;;;;4865371;28;114549;-80
2024/01/27 06:58:14;;;;;;;7.63;1.90;;;3.70;54.70;;;;;;4844721;28;114760;-80
2024/01/27 07:00:42;;;;;;;5.40;1.58;;;3.70;54.70;;;;;;4871121;28;115279;-80
2024/01/27 07:03:09;;;;;;;8.02;2.38;;;3.70;54.90;;;;;;4856044;28;117050;-80
2024/01/27 07:05:40;;;;;;;8.75;1.52;;;3.70;55.10;;;;;;4868540;28;114533;-81
2024/01/27 07:08:08;;;;;;;7.78;1.35;;;3.70;55.00;;;;;;4857628;28;114567;-80
2024/01/27 07:10:36;;;;;;;5.38;1.55;;;3.70;55.10;;;;;;4867855;28;115579;-81
2024/01/27 07:13:03;;;;;;;7.18;1.80;;;3.70;55.30;;;;;;4862905;28;114913;-81
2024/01/27 07:15:31;;;;;;;9.45;1.60;;;3.80;55.50;;;;;;4876592;28;114758;-81
2024/01/27 07:17:58;;;;;;;6.13;1.73;;;3.90;55.40;;;;;;4875484;28;114620;-80
2024/01/27 07:20:29;;;;;;;6.10;1.67;;;3.90;55.50;;;;;;4855992;28;115571;-81
2024/01/27 07:22:56;;;;;;;5.47;1.80;;;3.90;55.50;;;;;;4858339;28;115798;-79
2024/01/27 07:25:24;;;;;;;6.30;1.77;;;3.90;55.50;;;;;;4881382;28;115021;-82
2024/01/27 07:27:53;;;;;;;6.68;2.58;;;4.00;55.50;;;;;;4856571;28;114484;-82
2024/01/27 07:30:21;;;;;;;6.88;1.90;;;4.00;55.60;;;;;;4856894;28;116475;-81
2024/01/27 07:32:48;;;;;;;8.18;1.67;;;4.00;55.70;;;;;;4862784;28;114651;-80
2024/01/27 07:35:18;;;;;;;9.95;1.52;;;4.00;55.60;;;;;;4858628;28;115119;-80
2024/01/27 07:37:46;;;;;;;6.53;1.83;;;4.00;55.60;;;;;;4860847;28;114689;-81
2024/01/27 07:40:13;;;;;;;8.23;1.67;;;4.00;55.60;;;;;;4860342;28;115275;-81
2024/01/27 07:42:41;;;;;;;8.98;2.08;;;4.10;55.80;;;;;;4857494;28;115134;-81
2024/01/27 07:45:08;;;;;;;10.43;3.17;;;4.10;55.90;;;;;;4855408;28;114578;-80
2024/01/27 07:47:36;;;;;;;7.68;2.42;;;4.20;55.70;;;;;;4857300;28;114844;-81
2024/01/27 07:50:04;;;;;;;9.77;2.90;;;4.20;55.80;;;;;;4882686;28;115705;-81
2024/01/27 07:52:32;;;;;;;7.60;2.40;;;4.20;55.90;;;;;;4882839;28;115128;-81
2024/01/27 07:54:59;;;;;;;10.27;3.08;;;4.30;55.90;;;;;;4869495;28;114268;-81
2024/01/27 07:57:27;;;;;;;7.47;2.40;;;4.30;56.00;;;;;;4868566;28;114567;-82
2024/01/27 07:59:55;;;;;;;6.25;2.42;;;4.40;56.10;;;;;;4882277;28;114512;-81
2024/01/27 08:02:22;;;;;;;5.75;1.73;;;4.40;55.90;;;;;;4867190;28;114839;-80
2024/01/27 08:04:50;;;;;;;5.90;2.08;;;4.40;55.70;;;;;;4881630;28;114513;-82
2024/01/27 08:07:18;;;;;;;7.00;1.80;;;4.40;55.30;;;;;;4868160;28;115331;-81
2024/01/27 08:09:45;;;;;;;7.88;1.48;;;4.40;55.60;;;;;;4864771;28;115964;-81
2024/01/27 08:12:13;;;;;;;7.05;1.77;;;4.40;55.50;;;;;;4865710;28;118515;-81
2024/01/27 08:14:41;;;;;;;4.75;1.83;;;4.40;55.30;;;;;;4836397;28;115003;-82
2024/01/27 08:17:08;;;;;;;7.50;2.30;;;4.40;55.50;;;;;;4867306;28;114816;-81
2024/01/27 08:19:35;;;;;;;10.15;2.30;;;4.40;55.60;;;;;;4866096;28;116391;-80
2024/01/27 08:22:06;;;;;;;5.68;1.80;;;4.40;55.70;;;;;;4881577;28;115072;-81
2024/01/27 08:24:33;;;;;;;8.23;2.00;;;4.30;56.30;;;;;;4851904;28;114429;-80
2024/01/27 08:27:01;;;;;;;8.13;2.15;;;4.40;55.90;;;;;;4867164;28;114487;-80
2024/01/27 08:29:29;;;;;;;13.43;3.72;;;4.40;56.50;;;;;;4861168;28;118788;-80
2024/01/27 08:31:56;;;;;;;7.35;2.17;;;4.40;56.30;;;;;;4851712;28;115073;-80
2024/01/27 08:34:23;;;;;;;8.50;2.30;;;4.40;56.30;;;;;;4866279;28;114628;-82
2024/01/27 08:36:51;;;;;;;8.55;2.25;;;4.40;56.50;;;;;;4867880;28;114534;-81
2024/01/27 08:39:18;;;;;;;8.25;2.05;;;4.40;56.40;;;;;;4867253;28;116302;-81
2024/01/27 08:41:46;;;;;;;8.98;2.30;;;4.40;56.00;;;;;;4862306;28;115156;-80
2024/01/27 08:44:13;;;;;;;8.60;1.95;;;4.40;55.80;;;;;;4864740;28;114442;-81
2024/01/27 08:46:40;;;;;;;5.78;2.08;;;4.40;55.80;;;;;;4867651;28;114780;-80
2024/01/27 08:49:08;;;;;;;12.77;3.40;;;4.30;55.80;;;;;;4847378;28;115441;-81
2024/01/27 08:51:38;;;;;;;13.25;2.38;;;4.30;55.60;;;;;;4864882;28;114555;-81
2024/01/27 08:54:06;;;;;;;9.10;2.30;;;4.30;55.80;;;;;;4855463;28;114551;-82
2024/01/27 08:56:39;;;;;;;8.55;2.40;;;4.30;55.80;;;;;;4859108;28;114500;-80
2024/01/27 08:59:06;;;;;;;7.80;2.13;;;4.40;55.70;;;;;;4858051;28;115042;-80
2024/01/27 09:01:39;;;;;;;7.38;2.08;;;4.30;55.50;;;;;;4892747;28;115202;-80
2024/01/27 09:04:06;;;;;;;7.32;2.65;;;4.40;55.50;;;;;;4884724;28;114612;-81
2024/01/27 09:06:33;;;;;;;6.90;2.60;;;4.30;55.70;;;;;;4859332;28;114417;-82
2024/01/27 09:09:04;;;;;;;11.80;2.35;;;4.40;55.70;;;;;;4870792;28;115602;-81
2024/01/27 09:11:33;;;;;;;6.30;2.65;;;4.40;55.70;;;;;;4837355;28;114784;-80
2024/01/27 09:14:01;;;;;;;9.68;2.83;;;4.40;55.70;;;;;;4872050;28;114716;-81
2024/01/27 09:16:28;;;;;;;8.68;2.80;;;4.40;55.70;;;;;;4875222;28;116426;-81
2024/01/27 09:18:55;;;;;;;6.65;2.63;;;4.40;55.50;;;;;;4854079;28;115600;-81
2024/01/27 09:21:28;;;;;;;10.15;3.65;;;4.40;55.70;;;;;;4837438;28;115054;-80
2024/01/27 09:23:56;;;;;;;10.73;2.60;;;4.40;55.80;;;;;;4871677;28;114320;-81
2024/01/27 09:26:23;;;;;;;7.32;2.40;;;4.40;55.80;;;;;;4856415;28;114310;-81
2024/01/27 09:28:54;;;;;;;9.80;2.63;;;4.40;55.90;;;;;;4838011;28;115742;-82
2024/01/27 09:31:25;;;;;;;8.07;2.72;;;4.50;55.70;;;;;;4865375;28;117925;-81
2024/01/27 09:33:53;;;;;;;8.50;2.40;;;4.50;55.60;;;;;;4868235;28;114410;-81
2024/01/27 09:36:21;;;;;;;10.23;3.15;;;4.50;55.70;;;;;;4885908;28;114584;-82
2024/01/27 09:38:49;;;;;;;9.73;2.78;;;4.50;55.70;;;;;;4869626;28;115091;-81
2024/01/27 09:41:20;;;;;;;9.95;2.70;;;4.50;55.80;;;;;;4869830;28;115132;-83
2024/01/27 09:43:48;;;;;;;8.88;2.90;;;4.50;55.70;;;;;;4869486;28;114823;-81
2024/01/27 09:46:18;;;;;;;11.10;2.80;;;4.50;55.60;;;;;;4869940;28;114413;-81
2024/01/27 09:48:45;;;;;;;6.38;1.95;;;4.50;55.70;;;;;;4868443;28;115571;-82
2024/01/27 09:51:13;;;;;;;7.90;2.60;;;4.50;55.50;;;;;;4869561;28;115153;-81
2024/01/27 09:53:43;;;;;;;9.95;3.33;;;4.50;55.30;;;;;;4854505;28;114773;-82
2024/01/27 09:56:11;;;;;;;11.55;2.60;;;4.50;55.10;;;;;;4871269;28;114557;-82
2024/01/27 09:58:38;;;;;;;8.15;2.00;;;4.50;54.80;;;;;;4821258;28;117450;-82
2024/01/27 10:01:10;;;;;;;9.82;2.80;;;4.50;54.70;;;;;;4869087;28;114720;-82
2024/01/27 10:03:40;;;;;;;6.50;2.15;;;4.50;54.90;;;;;;4837086;28;114418;-81
2024/01/27 10:06:09;;;;;;;10.00;2.78;;;4.60;54.50;;;;;;4867143;28;114488;-82
2024/01/27 10:08:39;;;;;;;5.80;1.90;;;4.50;54.30;;;;;;4868725;28;115970;-82
2024/01/27 10:11:09;;;;;;;6.30;2.00;;;4.50;54.00;;;;;;4867419;28;114800;-80
2024/01/27 10:13:37;;;;;;;9.63;2.08;;;4.50;54.30;;;;;;4868590;28;114496;-81
2024/01/27 10:16:08;;;;;;;10.75;2.30;;;4.50;54.20;;;;;;4868274;28;114715;-82
2024/01/27 10:18:35;;;;;;;10.20;2.25;;;4.50;54.30;;;;;;4867901;28;115124;-81
2024/01/27 10:21:16;;;;;;;8.75;3.67;;;4.50;54.10;;;;;;4852110;28;117240;-81
2024/01/27 10:23:43;;;;;;;8.60;2.13;;;4.60;53.80;;;;;;4869494;28;114640;-79
2024/01/27 10:26:11;;;;;;;6.30;2.78;;;4.50;53.80;;;;;;4869287;28;114569;-80
2024/01/27 10:28:39;;;;;;;9.48;2.90;;;4.50;53.80;;;;;;4852628;28;115214;-81
2024/01/27 10:31:13;;;;;;;10.02;2.72;;;4.50;53.60;;;;;;4865128;28;117986;-80
2024/01/27 10:33:52;;;;;;;10.20;1.97;;;4.50;53.10;;;;;;4867673;28;114584;-81
2024/01/27 10:36:20;;;;;;;6.85;1.95;;;4.40;53.00;;;;;;4868736;28;114445;-80
2024/01/27 10:38:48;;;;;;;8.98;1.98;;;4.30;53.10;;;;;;4867192;28;115594;-81
2024/01/27 10:41:27;;;;;;;6.95;2.00;;;4.30;53.10;;;;;;4867489;28;114979;-80
2024/01/27 10:43:55;;;;;;;9.82;2.00;;;4.30;53.20;;;;;;4868654;28;114566;-80
2024/01/27 10:46:22;;;;;;;8.02;2.20;;;4.30;53.40;;;;;;4868001;28;114379;-82
2024/01/27 10:48:53;;;;;;;5.78;1.70;;;4.30;53.40;;;;;;4864977;28;115130;-81
2024/01/27 10:51:59;;;;;;;8.18;1.77;;;4.30;53.40;;;;;;4865987;28;115143;-81
2024/01/27 10:54:30;;;;;;;;;;;4.30;53.60;;;;;;4866933;28;114697;-81
2024/01/27 10:56:58;;;;;;;9.00;2.20;;;4.20;54.00;;;;;;4882590;28;114819;-79
2024/01/27 10:59:28;;;;;;;9.55;2.13;;;4.20;54.00;;;;;;4865453;28;115073;-80
2024/01/27 11:01:55;;;;;;;8.55;1.95;;;4.20;53.80;;;;;;4866211;28;117532;-82
2024/01/27 11:04:26;;;;;;;8.30;2.17;;;4.10;54.00;;;;;;4848474;28;114806;-80
2024/01/27 11:06:53;;;;;;;7.22;1.90;;;4.10;54.20;;;;;;4864397;28;114880;-81
2024/01/27 11:09:21;;;;;;;10.70;2.22;;;4.10;54.50;;;;;;4862466;28;115063;-80
2024/01/27 11:11:48;;;;;;;9.93;2.67;;;4.00;54.60;;;;;;4846884;29;116258;-80
2024/01/27 11:14:18;;;;;;;8.95;2.22;;;4.00;54.90;;;;;;4847121;28;114715;-81
2024/01/27 11:16:47;;;;;;;6.72;2.15;;;4.00;55.10;;;;;;4850052;29;114549;-80
2024/01/27 11:19:21;;;;;;;9.80;2.55;;;4.00;55.40;;;;;;4847857;28;115072;-80
2024/01/27 11:21:48;;;;;;;10.18;2.42;;;4.10;55.40;;;;;;4846850;29;115300;-80
2024/01/27 11:24:16;;;;;;;9.55;2.13;;;4.10;55.40;;;;;;4860025;28;114878;-81
2024/01/27 11:26:44;;;;;;;8.73;2.03;;;4.10;55.30;;;;;;4882585;28;114836;-81
2024/01/27 11:29:19;;;;;;;11.23;2.70;;;4.10;55.20;;;;;;4865699;28;116787;-82
2024/01/27 11:31:48;;;;;;;8.02;3.38;;;4.10;55.00;;;;;;4866772;28;115785;-81
2024/01/27 11:34:18;;;;;;;7.15;2.20;;;4.20;55.00;;;;;;4856386;28;114747;-79
2024/01/27 11:36:47;;;;;;;5.82;2.30;;;4.20;55.30;;;;;;4871167;28;114563;-81
2024/01/27 11:39:29;;;;;;;8.40;2.70;;;4.20;55.20;;;;;;4831761;28;115739;-80
2024/01/27 11:42:12;;;;;;;8.45;2.25;;;4.30;55.10;;;;;;4826702;28;116310;-80
2024/01/27 11:44:41;;;;;;;10.30;2.60;;;4.40;55.10;;;;;;4866712;28;114919;-80
2024/01/27 11:47:18;;;;;;;13.68;3.17;;;4.40;54.80;;;;;;4867848;28;115712;-79
2024/01/27 11:49:54;;;;;;;7.80;2.70;;;4.40;54.60;;;;;;4865348;28;116373;-81
2024/01/27 11:52:24;;;;;;;16.58;3.47;;;4.50;54.60;;;;;;4866734;28;115233;-81
2024/01/27 11:54:58;;;;;;;8.95;2.50;;;4.50;54.40;;;;;;4853509;28;114761;-81
2024/01/27 11:57:26;;;;;;;;;;;4.50;54.20;;;;;;4864377;28;114512;-80
2024/01/27 11:59:53;;;;;;;8.75;3.00;;;4.50;54.70;;;;;;4847883;28;115988;-82
2024/01/27 12:02:21;;;;;;;11.73;3.13;;;4.50;54.40;;;;;;4859125;28;115062;-82
2024/01/27 12:04:49;;;;;;;8.15;2.30;;;4.50;54.10;;;;;;4847824;28;114617;-81
2024/01/27 12:07:20;;;;;;;7.55;2.45;;;4.60;54.10;;;;;;4887397;28;114444;-81
2024/01/27 12:09:51;;;;;;;11.57;2.47;;;4.60;53.90;;;;;;4852080;28;115099;-83
2024/01/27 12:12:20;;;;;;;12.23;2.70;;;4.60;53.90;;;;;;4865266;28;114880;-82
2024/01/27 12:14:48;;;;;;;8.73;2.40;;;4.60;53.70;;;;;;4867048;28;114616;-81
2024/01/27 12:17:22;;;;;;;7.38;2.67;;;4.60;53.70;;;;;;4867181;28;114678;-82
2024/01/27 12:19:54;;;;;;;9.45;3.13;;;4.60;53.70;;;;;;4866232;28;117817;-81
2024/01/27 12:22:28;;;;;;;9.25;2.90;;;4.60;53.80;;;;;;4849815;28;115369;-82
2024/01/27 12:25:08;;;;;;;11.30;2.88;;;4.60;53.90;;;;;;4865881;28;114495;-82
2024/01/27 12:27:35;;;;;;;10.15;2.80;;;4.60;53.60;;;;;;4836319;28;114537;-83
2024/01/27 12:30:04;;;;;;;7.80;2.30;;;4.60;53.70;;;;;;4865094;28;117007;-82
2024/01/27 12:32:31;;;;;;;7.15;2.30;;;4.70;53.50;;;;;;4865071;28;115342;-80
2024/01/27 12:35:00;;;;;;;9.38;2.67;;;4.60;53.40;;;;;;4866655;28;114614;-82
2024/01/27 12:37:28;;;;;;;9.18;2.38;;;4.60;53.40;;;;;;4865166;28;114538;-81
2024/01/27 12:39:55;;;;;;;9.20;2.33;;;4.60;53.20;;;;;;4882147;28;117458;-81
2024/01/27 12:42:22;;;;;;;7.65;2.50;;;4.60;53.00;;;;;;4868074;28;114616;-80
2024/01/27 12:44:50;;;;;;;5.63;2.35;;;4.60;53.00;;;;;;4837014;28;114698;-82
2024/01/27 12:47:19;;;;;;;6.93;2.13;;;4.60;52.90;;;;;;4868289;28;114816;-80
2024/01/27 12:49:46;;;;;;;7.82;3.00;;;4.60;53.00;;;;;;4852068;28;116432;-81
2024/01/27 12:52:14;;;;;;;8.88;2.88;;;4.60;53.20;;;;;;4837206;28;114900;-81